Time;durP1;ratioP1;P1;durP2;ratioP2;P2;SDS_P1;SDS_P2;PMS_P1;PMS_P2;Temp;Humidity;BMP_temperature;BMP_pressure;BME280_temperature;BME280_humidity;BME280_pressure;Samples;Min_cycle;Max_cycle;Signal;HPM_P1;HPM_P2
2023/09/25 00:01:05;;;;;;;;;;;;;;;12.74;100.00;102121.19;4984469;28;19941;-85
2023/09/25 00:03:50;;;;;;;;;;;;;;;12.72;100.00;102120.38;4969107;28;19929;-85
2023/09/25 00:06:36;;;;;;;;;;;;;;;12.71;100.00;102123.94;4976393;28;20354;-85
2023/09/25 00:09:23;;;;;;;;;;;;;;;12.70;100.00;102117.75;4984744;28;19981;-84
2023/09/25 00:12:11;;;;;;;;;;;;;;;12.68;100.00;102118.75;4985955;28;19941;-86
2023/09/25 00:14:57;;;;;;;;;;;;;;;12.66;100.00;102123.22;4965324;28;20020;-85
2023/09/25 00:17:43;;;;;;;;;;;;;;;12.65;100.00;102118.84;4968846;28;20508;-85
2023/09/25 00:20:28;;;;;;;;;;;;;;;12.62;100.00;102117.16;4963734;28;20301;-87
2023/09/25 00:23:14;;;;;;;;;;;;;;;12.60;100.00;102117.19;4978013;28;19948;-87
2023/09/25 00:26:03;;;;;;;;;;;;;;;12.57;100.00;102112.00;4983891;28;19929;-86
2023/09/25 00:28:49;;;;;;;;;;;;;;;12.54;100.00;102111.25;4969921;28;19940;-84
2023/09/25 00:31:36;;;;;;;;;;;;;;;12.51;100.00;102104.25;4973583;28;20376;-86
2023/09/25 00:34:22;;;;;;;;;;;;;;;12.48;100.00;102113.16;4976127;28;19972;-85
2023/09/25 00:37:07;;;;;;;;;;;;;;;12.45;100.00;102107.97;4984523;28;19933;-85
2023/09/25 00:39:54;;;;;;;;;;;;;;;12.42;100.00;102107.22;4975332;28;19925;-85
2023/09/25 00:42:40;;;;;;;;;;;;;;;12.41;100.00;102106.34;4970657;28;19925;-85
2023/09/25 00:45:28;;;;;;;;;;;;;;;12.39;100.00;102109.94;4968438;28;19930;-86
2023/09/25 00:48:25;;;;;;;;;;;;;;;12.36;100.00;102109.16;4971487;28;19929;-86
2023/09/25 00:51:10;;;;;;;;;;;;;;;12.35;100.00;102107.41;4961972;28;20381;-85
2023/09/25 00:53:56;;;;;;;;;;;;;;;12.34;100.00;102118.97;4970588;28;20400;-86
2023/09/25 00:56:42;;;;;;;;;;;;;;;12.31;100.00;102110.22;4969573;28;19937;-86
2023/09/25 00:59:27;;;;;;;;;;;;;;;12.29;100.00;102104.94;4984192;28;20028;-86
2023/09/25 01:02:13;;;;;;;;;;;;;;;12.26;100.00;102102.38;4962840;28;20071;-86
2023/09/25 01:05:00;;;;;;;;;;;;;;;12.23;100.00;102099.84;4976061;28;19933;-86
2023/09/25 01:07:46;;;;;;;;;;;;;;;12.21;100.00;102109.66;4973043;28;20019;-86
2023/09/25 01:10:32;;;;;;;;;;;;;;;12.15;100.00;102100.06;4970842;28;19934;-85
2023/09/25 01:13:17;;;;;;;;;;;;;;;12.11;100.00;102098.47;4974986;28;20452;-86
2023/09/25 01:16:03;;;;;;;;;;;;;;;12.07;100.00;102096.81;4974711;28;20403;-85
2023/09/25 01:18:49;;;;;;;;;;;;;;;12.02;100.00;102088.97;4969893;28;19926;-85
2023/09/25 01:21:36;;;;;;;;;;;;;;;12.00;100.00;102089.91;4968945;28;20277;-85
2023/09/25 01:24:21;;;;;;;;;;;;;;;11.99;100.00;102085.53;4984343;28;20440;-86
2023/09/25 01:27:07;;;;;;;;;;;;;;;11.96;100.00;102089.16;4983100;28;21718;-85
2023/09/25 01:29:53;;;;;;;;;;;;;;;11.93;100.00;102083.97;4967605;28;20008;-86
2023/09/25 01:32:39;;;;;;;;;;;;;;;11.89;100.00;102083.19;4966963;28;19929;-84
2023/09/25 01:35:26;;;;;;;;;;;;;;;11.85;100.00;102078.00;4968562;28;20067;-85
2023/09/25 01:38:12;;;;;;;;;;;;;;;11.83;100.00;102080.72;4983837;28;19940;-86
2023/09/25 01:40:57;;;;;;;;;;;;;;;11.80;100.00;102076.38;4985151;28;21471;-86
2023/09/25 01:43:43;;;;;;;;;;;;;;;11.80;100.00;102080.78;4982214;28;19929;-85
2023/09/25 01:46:29;;;;;;;;;;;;;;;11.77;100.00;102068.50;4968008;28;19929;-86
2023/09/25 01:49:14;;;;;;;;;;;;;;;11.74;100.00;102073.03;4970668;28;21641;-86
2023/09/25 01:52:07;;;;;;;;;;;;;;;11.71;100.00;102071.31;4976126;28;19925;-85
2023/09/25 01:54:52;;;;;;;;;;;;;;;11.67;100.00;102064.41;4981319;28;20371;-87
2023/09/25 01:57:38;;;;;;;;;;;;;;;11.63;100.00;102060.97;4981733;28;19933;-84
2023/09/25 02:00:24;;;;;;;;;;;;;;;11.61;100.00;102062.78;4965906;28;20436;-85
2023/09/25 02:03:10;;;;;;;;;;;;;;;11.59;100.00;102069.06;4983713;28;20012;-86
2023/09/25 02:05:56;;;;;;;;;;;;;;;11.55;100.00;102058.53;4981661;28;19934;-85
2023/09/25 02:08:42;;;;;;;;;;;;;;;11.54;100.00;102050.63;4962006;28;19930;-85
2023/09/25 02:11:28;;;;;;;;;;;;;;;11.52;100.00;102053.34;4962616;28;20044;-85
2023/09/25 02:14:13;;;;;;;;;;;;;;;11.50;100.00;102056.97;4982744;28;19926;-86
2023/09/25 02:16:59;;;;;;;;;;;;;;;11.48;100.00;102049.03;4981824;28;19956;-86
2023/09/25 02:19:45;;;;;;;;;;;;;;;11.48;100.00;102061.41;4982641;28;20476;-85
2023/09/25 02:22:30;;;;;;;;;;;;;;;11.47;100.00;102057.91;4982403;28;20092;-86
2023/09/25 02:25:16;;;;;;;;;;;;;;;11.48;100.00;102051.69;4981807;28;19929;-86
2023/09/25 02:28:02;;;;;;;;;;;;;;;11.48;100.00;102051.69;4967574;28;19984;-85
2023/09/25 02:30:48;;;;;;;;;;;;;;;11.49;100.00;102048.13;4982618;28;21545;-86
2023/09/25 02:33:33;;;;;;;;;;;;;;;11.50;100.00;102044.53;4956228;28;20020;-85
2023/09/25 02:36:19;;;;;;;;;;;;;;;11.49;100.00;102036.66;4957480;28;20012;-86
2023/09/25 02:39:05;;;;;;;;;;;;;;;11.48;100.00;102029.59;4971430;28;20566;-85
2023/09/25 02:41:51;;;;;;;;;;;;;;;11.46;100.00;102026.13;4982872;28;20016;-86
2023/09/25 02:44:36;;;;;;;;;;;;;;;11.45;100.00;102027.94;4982743;28;20439;-86
2023/09/25 02:47:22;;;;;;;;;;;;;;;11.44;100.00;102031.47;4981652;28;19933;-84
2023/09/25 02:50:08;;;;;;;;;;;;;;;11.41;100.00;102023.63;4967523;28;19945;-86
2023/09/25 02:52:53;;;;;;;;;;;;;;;11.39;100.00;102021.00;4984164;28;19933;-86
2023/09/25 02:55:47;;;;;;;;;;;;;;;11.39;100.00;102026.31;4995525;28;19965;-84
2023/09/25 02:58:32;;;;;;;;;;;;;;;11.37;100.00;102016.66;4977859;28;20384;-85
2023/09/25 03:01:18;;;;;;;;;;;;;;;11.36;100.00;102015.81;4994248;28;19929;-84
2023/09/25 03:04:04;;;;;;;;;;;;;;;11.35;100.00;102018.50;4990372;28;19957;-83
2023/09/25 03:06:50;;;;;;;;;;;;;;;11.34;100.00;102014.13;4967587;28;20012;-86
2023/09/25 03:09:36;;;;;;;;;;;;;;;11.32;100.00;102016.81;4995513;28;19961;-84
2023/09/25 03:12:22;;;;;;;;;;;;;;;11.30;100.00;102023.06;4981814;28;20389;-84
2023/09/25 03:15:08;;;;;;;;;;;;;;;11.27;100.00;102016.06;4972719;28;19926;-85
2023/09/25 03:17:56;;;;;;;;;;;;;;;11.23;100.00;102017.94;4998205;28;19974;-85
2023/09/25 03:20:42;;;;;;;;;;;;;;;11.21;100.00;102022.44;4980538;28;20544;-83
2023/09/25 03:23:28;;;;;;;;;;;;;;;11.19;100.00;102028.69;4974617;28;19929;-84
2023/09/25 03:26:18;;;;;;;;;;;;;;;11.17;100.00;102031.38;4998639;28;20003;-85
2023/09/25 03:29:06;;;;;;;;;;;;;;;11.14;100.00;102032.34;4996190;28;20324;-84
2023/09/25 03:31:52;;;;;;;;;;;;;;;11.15;100.00;102035.84;4981769;28;19944;-85
2023/09/25 03:34:43;;;;;;;;;;;;;;;11.13;100.00;102029.75;4976065;28;19941;-85
2023/09/25 03:37:29;;;;;;;;;;;;;;;11.11;100.00;102028.94;4981838;28;19949;-84
2023/09/25 03:40:15;;;;;;;;;;;;;;;11.11;100.00;102028.94;4995607;28;20119;-85
2023/09/25 03:43:00;;;;;;;;;;;;;;;11.09;100.00;102022.78;4985999;28;20051;-84
2023/09/25 03:45:47;;;;;;;;;;;;;;;11.06;100.00;102015.78;4993976;28;19930;-85
2023/09/25 03:48:40;;;;;;;;;;;;;;;11.06;100.00;102012.28;4981318;28;19969;-85
2023/09/25 03:51:26;;;;;;;;;;;;;;;11.06;100.00;102001.69;4973328;28;19930;-87
2023/09/25 03:54:11;;;;;;;;;;;;;;;11.06;100.00;102004.34;4974160;28;19948;-85
2023/09/25 03:56:58;;;;;;;;;;;;;;;11.07;100.00;102008.72;4981216;28;20025;-85
2023/09/25 03:59:43;;;;;;;;;;;;;;;11.08;100.00;102005.16;4969792;28;20320;-85
2023/09/25 04:02:29;;;;;;;;;;;;;;;11.08;100.00;102007.78;4994037;28;19930;-85
2023/09/25 04:05:17;;;;;;;;;;;;;;;11.11;100.00;102019.19;4984493;28;19932;-83
2023/09/25 04:08:05;;;;;;;;;;;;;;;11.13;100.00;102014.69;4997382;28;19937;-85
2023/09/25 04:10:50;;;;;;;;;;;;;;;11.14;100.00;102020.88;4981077;28;19929;-84
2023/09/25 04:13:36;;;;;;;;;;;;;;;11.16;100.00;102029.63;4978264;28;19932;-85
2023/09/25 04:16:22;;;;;;;;;;;;;;;11.16;100.00;102032.28;4999188;28;20024;-84
2023/09/25 04:19:08;;;;;;;;;;;;;;;11.18;100.00;102034.91;4983469;28;19983;-84
2023/09/25 04:21:53;;;;;;;;;;;;;;;11.17;100.00;102041.97;4998399;28;20388;-84
2023/09/25 04:25:08;;;;;;;;;;;;;;;11.16;100.00;102034.94;4984768;28;19932;-83
2023/09/25 04:27:54;;;;;;;;;;;;;;;11.15;100.00;102038.50;4998062;28;19925;-83
2023/09/25 04:30:40;;;;;;;;;;;;;;;11.15;100.00;102038.50;4982574;28;19922;-83
2023/09/25 04:33:26;;;;;;;;;;;;;;;11.14;100.00;102039.44;4981855;28;20020;-84
2023/09/25 04:36:12;;;;;;;;;;;;;;;11.13;100.00;102045.66;4982426;28;19953;-84
2023/09/25 04:38:58;;;;;;;;;;;;;;;11.11;100.00;102045.69;4974874;28;19929;-85
2023/09/25 04:41:44;;;;;;;;;;;;;;;11.11;100.00;102044.81;4997517;28;19929;-83
2023/09/25 04:44:32;;;;;;;;;;;;;;;11.09;100.00;102050.16;4983518;28;20357;-83
2023/09/25 04:47:17;;;;;;;;;;;;;;;11.08;100.00;102043.13;4971045;28;19929;-85
2023/09/25 04:50:08;;;;;;;;;;;;;;;11.09;100.00;102047.50;4985333;28;19936;-83
2023/09/25 04:53:04;;;;;;;;;;;;;;;11.09;100.00;102054.59;4993183;28;19929;-85
2023/09/25 04:55:49;;;;;;;;;;;;;;;11.08;100.00;102043.13;4995025;28;19965;-85
2023/09/25 04:58:35;;;;;;;;;;;;;;;11.07;100.00;102048.47;4991736;28;19933;-84
2023/09/25 05:01:31;;;;;;;;;;;;;;;11.07;100.00;102056.41;4988639;28;19964;-84
2023/09/25 05:04:17;;;;;;;;;;;;;;;11.07;100.00;102061.72;4980655;28;20076;-86
2023/09/25 05:07:08;;;;;;;;;;;;;;;11.05;100.00;102051.16;4994211;28;21541;-85
2023/09/25 05:09:54;;;;;;;;;;;;;;;11.06;100.00;102059.97;4975834;28;20407;-85
2023/09/25 05:12:43;;;;;;;;;;;;;;;11.05;100.00;102059.09;4990195;28;19934;-84
2023/09/25 05:15:31;;;;;;;;;;;;;;;11.06;100.00;102065.28;4992232;28;19926;-84
2023/09/25 05:18:17;;;;;;;;;;;;;;;11.05;100.00;102058.25;4978056;28;19984;-85
2023/09/25 05:21:06;;;;;;;;;;;;;;;11.05;100.00;102064.41;4977579;28;19937;-85
2023/09/25 05:23:52;;;;;;;;;;;;;;;11.06;100.00;102057.34;4969784;28;19936;-85
2023/09/25 05:26:37;;;;;;;;;;;;;;;11.06;100.00;102059.97;4990471;28;19921;-84
2023/09/25 05:29:25;;;;;;;;;;;;;;;11.06;100.00;102058.19;4988101;28;20032;-84
2023/09/25 05:32:11;;;;;;;;;;;;;;;11.08;100.00;102066.09;4975214;28;20324;-84
2023/09/25 05:34:57;;;;;;;;;;;;;;;11.06;100.00;102060.84;4977158;28;19939;-83
2023/09/25 05:37:47;;;;;;;;;;;;;;;11.07;100.00;102056.41;4990722;28;20957;-82
2023/09/25 05:40:40;;;;;;;;;;;;;;;11.08;100.00;102058.16;4978421;28;19932;-84
2023/09/25 05:43:26;;;;;;;;;;;;;;;11.08;100.00;102068.75;4974579;28;20296;-84
2023/09/25 05:46:12;;;;;;;;;;;;;;;11.08;100.00;102076.69;4975530;28;20463;-85
2023/09/25 05:48:58;;;;;;;;;;;;;;;11.09;100.00;102070.47;4990816;28;20389;-82
2023/09/25 05:51:43;;;;;;;;;;;;;;;11.09;100.00;102066.06;4991627;28;20070;-84
2023/09/25 05:54:30;;;;;;;;;;;;;;;11.11;100.00;102069.53;4990514;28;19941;-84
2023/09/25 05:57:15;;;;;;;;;;;;;;;11.13;100.00;102073.00;4969172;28;19930;-81
2023/09/25 06:00:01;;;;;;;;;;;;;;;11.14;100.00;102068.59;4971798;28;19984;-84
2023/09/25 06:02:47;;;;;;;;;;;;;;;11.17;100.00;102079.09;4977952;28;19926;-83
2023/09/25 06:05:36;;;;;;;;;;;;;;;11.19;100.00;102077.28;4977818;28;19936;-83
2023/09/25 06:08:25;;;;;;;;;;;;;;;11.22;100.00;102084.28;4966846;28;19944;-82
2023/09/25 06:11:10;;;;;;;;;;;;;;;11.22;100.00;102077.19;4970552;28;19941;-83
2023/09/25 06:13:56;;;;;;;;;;;;;;;11.26;100.00;102080.59;4991147;28;19972;-83
2023/09/25 06:16:42;;;;;;;;;;;;;;;11.27;100.00;102077.03;4977283;28;19933;-81
2023/09/25 06:19:28;;;;;;;;;;;;;;;11.30;100.00;102078.72;4993261;28;19933;-83
2023/09/25 06:22:14;;;;;;;;;;;;;;;11.32;100.00;102083.09;4995397;28;19934;-84
2023/09/25 06:25:03;;;;;;;;;;;;;;;11.34;100.00;102083.06;4963520;28;19930;-83
2023/09/25 06:27:51;;;;;;;;;;;;;;;11.35;100.00;102084.78;4989706;28;20423;-83
2023/09/25 06:30:41;;;;;;;;;;;;;;;11.38;100.00;102080.25;4965090;28;19932;-84
2023/09/25 06:33:28;;;;;;;;;;;;;;;11.39;100.00;102081.13;4990795;28;21498;-83
2023/09/25 06:36:14;;;;;;;;;;;;;;;11.40;100.00;102085.53;4989235;28;20358;-81
2023/09/25 06:39:00;;;;;;;;;;;;;;;11.44;100.00;102088.97;4990935;28;20377;-83
2023/09/25 06:41:46;;;;;;;;;;;;;;;11.46;100.00;102084.47;4974348;28;19926;-84
2023/09/25 06:44:34;;;;;;;;;;;;;;;11.49;100.00;102087.91;4963210;28;19937;-83
2023/09/25 06:47:20;;;;;;;;;;;;;;;11.52;100.00;102094.91;4977575;28;21606;-84
2023/09/25 06:50:05;;;;;;;;;;;;;;;11.55;100.00;102092.13;4993498;28;19929;-83
2023/09/25 06:52:58;;;;;;;;;;;;;;;11.59;100.00;102090.28;4993736;28;19940;-81
2023/09/25 06:55:44;;;;;;;;;;;;;;;11.63;100.00;102092.81;4979556;28;19940;-82
2023/09/25 06:58:30;;;;;;;;;;;;;;;11.67;100.00;102088.28;4994806;28;19936;-83
2023/09/25 07:01:17;;;;;;;;;;;;;;;11.70;100.00;102098.78;4992250;28;20170;-84
2023/09/25 07:04:06;;;;;;;;;;;;;;;11.73;100.00;102097.81;4982456;28;19999;-83
2023/09/25 07:06:52;;;;;;;;;;;;;;;11.76;100.00;102103.06;4997576;28;19971;-83
2023/09/25 07:09:40;;;;;;;;;;;;;;;11.80;100.00;102099.38;4978421;28;20072;-83
2023/09/25 07:12:27;;;;;;;;;;;;;;;11.84;100.00;102100.16;4994657;28;20715;-82
2023/09/25 07:15:13;;;;;;;;;;;;;;;11.87;100.00;102095.59;4993821;28;20316;-84
2023/09/25 07:18:01;;;;;;;;;;;;;;;11.93;100.00;102099.88;4992292;28;19926;-83
2023/09/25 07:20:52;;;;;;;;;;;;;;;11.98;100.00;102095.28;4979099;28;19937;-84
2023/09/25 07:23:38;;;;;;;;;;;;;;;12.02;100.00;102094.28;4995170;28;19960;-83
2023/09/25 07:26:25;;;;;;;;;;;;;;;12.08;100.00;102093.22;4992432;28;20296;-84
2023/09/25 07:29:11;;;;;;;;;;;;;;;12.14;100.00;102108.13;4991871;28;19929;-84
2023/09/25 07:31:57;;;;;;;;;;;;;;;12.18;100.00;102099.13;4978034;28;19945;-83
2023/09/25 07:34:52;;;;;;;;;;;;;;;12.23;100.00;102097.19;4978285;28;19925;-82
2023/09/25 07:37:37;;;;;;;;;;;;;;;12.29;100.00;102088.13;4993356;28;19956;-83
2023/09/25 07:40:27;;;;;;;;;;;;;;;12.33;100.00;102087.13;4993347;28;20296;-84
2023/09/25 07:43:16;;;;;;;;;;;;;;;12.37;100.00;102080.81;4994176;28;19941;-84
2023/09/25 07:46:02;;;;;;;;;;;;;;;12.42;100.00;102083.31;4995224;28;19934;-83
2023/09/25 07:48:48;;;;;;;;;;;;;;;12.47;100.00;102087.53;4996227;28;19934;-82
2023/09/25 07:51:34;;;;;;;;;;;;;;;12.52;100.00;102087.38;4981769;28;19945;-83
2023/09/25 07:54:23;;;;;;;;;;;;;;;12.55;100.00;102087.28;4994527;28;19937;-83
2023/09/25 07:57:08;;;;;;;;;;;;;;;12.59;100.00;102094.22;4979604;28;19957;-84
2023/09/25 07:59:55;;;;;;;;;;;;;;;12.65;100.00;102095.81;4977587;28;19961;-84
2023/09/25 08:02:47;;;;;;;;;;;;;;;12.71;100.00;102092.06;4993965;28;19937;-84
2023/09/25 08:05:33;;;;;;;;;;;;;;;12.77;100.00;102086.53;4970885;28;19934;-82
2023/09/25 08:08:20;;;;;;;;;;;;;;;12.86;100.00;102088.88;4977829;28;19938;-84
2023/09/25 08:11:06;;;;;;;;;;;;;;;12.92;100.00;102090.47;4980945;28;20002;-85
2023/09/25 08:13:56;;;;;;;;;;;;;;;12.99;100.00;102088.44;4995146;28;20379;-84
2023/09/25 08:16:51;;;;;;;;;;;;;;;13.07;100.00;102091.69;4981185;28;19922;-82
2023/09/25 08:19:37;;;;;;;;;;;;;;;13.14;100.00;102095.00;4950238;28;20053;-84
2023/09/25 08:22:23;;;;;;;;;;;;;;;13.23;100.00;102093.78;4945985;28;19930;-84
2023/09/25 08:25:09;;;;;;;;;;;;;;;13.30;100.00;102096.16;4947488;28;19926;-89
2023/09/25 08:27:55;;;;;;;;;;;;;;;13.39;100.00;102094.94;4948468;28;19973;-84
2023/09/25 08:30:41;;;;;;;;;;;;;;;13.47;100.00;102092.03;4952483;28;20025;-86
2023/09/25 08:33:27;;;;;;;;;;;;;;;13.55;100.00;102089.06;4944683;28;19936;-78
2023/09/25 08:36:15;;;;;;;;;;;;;;;13.61;100.00;102088.84;4948520;28;20037;-86
2023/09/25 08:39:03;;;;;;;;;;;;;;;13.68;100.00;102100.97;4951231;28;20405;-87
2023/09/25 08:41:52;;;;;;;;;;;;;;;13.74;100.00;102088.38;4946203;28;19992;-87
2023/09/25 08:44:37;;;;;;;;;;;;;;;13.79;100.00;102092.56;4950813;28;20498;-88
2023/09/25 08:47:23;;;;;;;;;;;;;;;13.88;100.00;102088.69;4955113;28;19934;-89
2023/09/25 08:50:09;;;;;;;;;;;;;;;13.95;100.00;102095.50;4947789;28;19932;-87
2023/09/25 08:52:56;;;;;;;;;;;;;;;14.05;100.00;102093.34;4965994;28;20214;-92
2023/09/25 08:58:49;;;;;;;;;;;;;;;14.25;100.00;102091.66;4932340;28;19969;-89
2023/09/25 09:01:34;;;;;;;;;;;;;;;14.37;100.00;102100.94;4907234;29;19938;-91
2023/09/25 09:04:22;;;;;;;;;;;;;;;14.49;100.00;102097.75;4922375;28;20986;-90
2023/09/25 09:07:11;;;;;;;;;;;;;;;14.59;100.00;102103.56;4927364;29;19946;-93
2023/09/25 09:09:58;;;;;;;;;;;;;;;14.68;100.00;102107.66;4911990;29;19927;-91
2023/09/25 09:12:53;;;;;;;;;;;;;;;14.79;100.00;102104.56;4926120;29;19981;-93
2023/09/25 09:15:42;;;;;;;;;;;;;;;14.89;100.00;102105.91;4910072;29;20875;-90
2023/09/25 09:18:32;;;;;;;;;;;;;;;14.97;100.00;102110.88;4891278;29;20379;-91
2023/09/25 09:21:25;;;;;;;;;;;;;;;15.07;100.00;102108.66;4892699;29;19987;-90
2023/09/25 09:24:22;;;;;;;;;;;;;;;15.19;100.00;102110.78;4895062;29;19935;-88
2023/09/25 09:27:14;;;;;;;;;;;;;;;15.32;100.00;102111.09;4895905;29;19927;-92
2023/09/25 09:30:02;;;;;;;;;;;;;;;15.47;100.00;102106.88;4951896;28;20207;-91
2023/09/25 09:32:51;;;;;;;;;;;;;;;15.54;100.00;102099.44;4949654;28;19949;-91
2023/09/25 09:35:37;;;;;;;;;;;;;;;15.61;100.00;102100.03;4947506;28;20393;-90
2023/09/25 09:38:33;;;;;;;;;;;;;;;15.63;100.00;102098.13;4946313;28;19922;-89
2023/09/25 09:41:21;;;;;;;;;;;;;;;15.68;100.00;102097.94;4945004;28;19922;-85
2023/09/25 09:44:07;;;;;;;;;;;;;;;15.73;100.00;102106.56;4952748;28;19926;-87
2023/09/25 09:46:53;;;;;;;;;;;;;;;15.81;100.00;102120.44;4944460;28;19934;-88
2023/09/25 09:49:57;;;;;;;;;;;;;;;15.88;100.00;102123.69;4977408;28;19937;-85
2023/09/25 09:52:48;;;;;;;;;;;;;;;15.97;100.00;102114.41;4975467;28;20476;-89
2023/09/25 09:55:36;;;;;;;;;;;;;;;16.02;100.00;102117.72;4974752;28;19930;-85
2023/09/25 09:58:26;;;;;;;;;;;;;;;16.13;100.00;102114.53;4971627;28;19930;-87
2023/09/25 10:01:12;;;;;;;;;;;;;;;16.22;100.00;102114.06;4973926;28;19925;-86
2023/09/25 10:03:57;;;;;;;;;;;;;;;16.31;100.00;102119.88;4964402;28;19978;-87
2023/09/25 10:07:12;;;;;;;;;;;;;;;16.34;100.00;102115.25;4988839;28;19953;-87
2023/09/25 10:09:59;;;;;;;;;;;;;;;16.37;100.00;102112.44;4981827;28;19930;-87
2023/09/25 10:12:49;;;;;;;;;;;;;;;16.40;100.00;102112.28;4974372;28;19926;-87
2023/09/25 10:15:34;;;;;;;;;;;;;;;16.50;100.00;102114.50;4966141;28;19935;-86
2023/09/25 10:18:20;;;;;;;;;;;;;;;16.54;100.00;102118.72;4973164;28;19934;-85
2023/09/25 10:21:14;;;;;;;;;;;;;;;16.57;100.00;102118.59;4961994;28;20040;-86
2023/09/25 10:24:02;;;;;;;;;;;;;;;16.63;100.00;102109.38;4965099;28;19934;-86
2023/09/25 10:26:48;;;;;;;;;;;;;;;16.67;100.00;102102.94;4973498;28;20078;-83
2023/09/25 10:29:34;;;;;;;;;;;;;;;16.75;100.00;102110.56;4974296;28;20289;-81
2023/09/25 10:32:29;;;;;;;;;;;;;;;16.78;100.00;102121.09;4990412;28;20660;-82
2023/09/25 10:35:33;;;;;;;;;;;;;;;16.83;100.00;102119.03;4969504;28;19922;-89
2023/09/25 10:38:31;;;;;;;;;;;;;;;16.89;100.00;102128.56;4988211;28;19952;-88
2023/09/25 10:41:17;;;;;;;;;;;;;;;16.97;100.00;102127.25;4996189;28;20424;-87
2023/09/25 10:44:10;;;;;;;;;;;;;;;17.04;100.00;102133.16;4976966;28;19935;-83
2023/09/25 10:46:55;;;;;;;;;;;;;;;17.14;100.00;102140.69;4994579;28;19934;-86
2023/09/25 10:49:41;;;;;;;;;;;;;;;17.20;100.00;102143.91;4975221;28;19929;-85
2023/09/25 10:52:27;;;;;;;;;;;;;;;17.22;100.00;102141.16;4993993;28;19929;-88
2023/09/25 10:55:23;;;;;;;;;;;;;;;17.29;100.00;102145.22;4981138;28;20013;-88
2023/09/25 10:58:12;;;;;;;;;;;;;;;17.31;100.00;102139.78;4988522;28;19976;-87
2023/09/25 11:01:19;;;;;;;;;;;;;;;17.41;100.00;102141.03;4975066;28;19933;-87
2023/09/25 11:04:04;;;;;;;;;;;;;;;17.49;100.00;102146.81;4976992;28;19976;-86
2023/09/25 11:06:49;;;;;;;;;;;;;;;17.53;100.00;102138.63;4975122;28;19934;-86
2023/09/25 11:09:38;;;;;;;;;;;;;;;17.55;100.00;102142.97;4996412;28;19987;-85
2023/09/25 11:12:34;;;;;;;;;;;;;;;;;;;;;
2023/09/25 11:15:33;;;;;;;;;;;;;;;17.56;100.00;102139.34;4980746;28;19952;-85
2023/09/25 11:18:19;;;;;;;;;;;;;;;17.57;100.00;102134.81;4976724;28;19945;-84
2023/09/25 11:21:12;;;;;;;;;;;;;;;17.63;100.00;102139.84;4964020;28;19930;-85
2023/09/25 11:24:03;;;;;;;;;;;;;;;17.64;100.00;102131.75;4975061;28;19964;-86
2023/09/25 11:26:49;;;;;;;;;;;;;;;17.68;100.00;102135.13;4968171;28;19936;-87
2023/09/25 11:29:35;;;;;;;;;;;;;;;17.69;100.00;102139.50;4964101;28;19937;-86
2023/09/25 11:32:21;;;;;;;;;;;;;;;17.70;100.00;102148.44;4977148;28;19930;-87
2023/09/25 11:35:08;;;;;;;;;;;;;;;17.69;100.00;102144.88;4998474;28;19937;-80
2023/09/25 11:37:54;;;;;;;;;;;;;;;17.68;100.00;102143.16;4974310;28;19948;-81
2023/09/25 11:40:40;;;;;;;;;;;;;;;17.68;100.00;102143.16;4999682;28;19929;-89
2023/09/25 11:43:28;;;;;;;;;;;;;;;17.75;100.00;102147.22;4996159;28;20020;-87
2023/09/25 11:46:15;;;;;;;;;;;;;;;17.80;100.00;102138.06;4997894;28;19937;-87
2023/09/25 11:49:00;;;;;;;;;;;;;;;17.84;100.00;102142.28;4969542;28;19926;-89
2023/09/25 11:51:48;;;;;;;;;;;;;;;17.89;100.00;102146.47;4972563;28;20416;-90
2023/09/25 11:54:34;;;;;;;;;;;;;;;17.91;100.00;102154.38;4996695;28;19929;-88
2023/09/25 11:57:20;;;;;;;;;;;;;;;17.94;100.00;102151.53;4970038;28;19977;-82
2023/09/25 12:00:06;;;;;;;;;;;;;;;17.99;100.00;102151.28;4974778;28;19930;-83
2023/09/25 12:02:55;;;;;;;;;;;;;;;18.05;100.00;102151.81;4987556;28;21843;-83
2023/09/25 12:05:41;;;;;;;;;;;;;;;18.13;100.00;102158.56;4989302;28;19917;-84
2023/09/25 12:08:27;;;;;;;;;;;;;;;18.17;100.00;102152.97;4961402;28;19922;-84
2023/09/25 12:11:15;;;;;;;;;;;;;;;18.21;100.00;102155.44;4977979;28;19930;-82
2023/09/25 12:14:01;;;;;;;;;;;;;;;18.23;100.00;102142.81;4977945;28;19925;-83
2023/09/25 12:16:47;;;;;;;;;;;;;;;18.26;100.00;102142.66;4960105;28;19956;-84
2023/09/25 12:19:33;;;;;;;;;;;;;;;18.27;100.00;102150.63;4963226;28;19929;-84
2023/09/25 12:22:19;;;;;;;;;;;;;;;18.30;100.00;102155.78;4964341;28;19973;-81
2023/09/25 12:25:06;;;;;;;;;;;;;;;18.35;100.00;102157.34;4973269;28;19929;-81
2023/09/25 12:27:52;;;;;;;;;;;;;;;18.40;100.00;102164.16;4986689;28;21820;-82
2023/09/25 12:30:42;;;;;;;;;;;;;;;18.44;100.00;102163.03;4968888;28;20003;-83
2023/09/25 12:33:28;;;;;;;;;;;;;;;18.45;100.00;102169.25;4971540;28;19940;-82
2023/09/25 12:36:15;;;;;;;;;;;;;;;18.51;100.00;102166.22;4987856;28;19929;-83
2023/09/25 12:39:06;;;;;;;;;;;;;;;18.59;100.00;102171.97;4984779;28;19933;-82
2023/09/25 12:41:52;;;;;;;;;;;;;;;18.64;100.00;102173.53;4988127;28;19929;-83
2023/09/25 12:44:37;;;;;;;;;;;;;;;18.70;100.00;102170.50;4975731;28;19929;-83
2023/09/25 12:47:26;;;;;;;;;;;;;;;18.77;100.00;102171.00;4990375;28;19929;-90
2023/09/25 12:50:16;;;;;;;;;;;;;;;18.77;100.00;102174.53;4970332;28;20371;-87
2023/09/25 12:53:09;;;;;;;;;;;;;;;18.78;100.00;102170.06;4979031;28;19929;-90
2023/09/25 12:55:56;;;;;;;;;;;;;;;18.81;100.00;102176.09;4992965;28;19941;-87
2023/09/25 12:58:45;;;;;;;;;;;;;;;18.84;100.00;102175.03;4971593;28;19921;-86
2023/09/25 13:01:31;;;;;;;;;;;;;;;18.83;100.00;102166.13;4973520;28;19930;-87
2023/09/25 13:04:18;;;;;;;;;;;;;;;18.86;100.00;102165.94;4969576;28;19936;-88
2023/09/25 13:07:03;;;;;;;;;;;;;;;18.88;100.00;102160.50;4985053;28;19933;-87
2023/09/25 13:09:49;;;;;;;;;;;;;;;18.87;100.00;102170.34;4971074;28;20807;-85
2023/09/25 13:12:35;;;;;;;;;;;;;;;18.85;100.00;102166.91;4984053;28;19936;-85
2023/09/25 13:15:21;;;;;;;;;;;;;;;18.83;100.00;102155.41;4973678;28;19948;-86
2023/09/25 13:18:08;;;;;;;;;;;;;;;18.81;100.00;102160.00;4973634;28;20519;-86
2023/09/25 13:20:56;;;;;;;;;;;;;;;18.81;100.00;102157.31;4974005;28;20127;-87
2023/09/25 13:23:41;;;;;;;;;;;;;;;18.81;100.00;102168.06;4962570;28;20871;-87
2023/09/25 13:26:27;;;;;;;;;;;;;;;18.83;100.00;102158.09;4978675;28;19929;-86
2023/09/25 13:29:13;;;;;;;;;;;;;;;18.84;100.00;102164.31;4972878;28;19929;-88
2023/09/25 13:31:59;;;;;;;;;;;;;;;18.84;100.00;102165.19;4984985;28;20052;-87
2023/09/25 13:34:45;;;;;;;;;;;;;;;18.85;100.00;102166.91;4958632;28;19930;-86
2023/09/25 13:37:32;;;;;;;;;;;;;;;18.84;100.00;102169.66;4967973;28;19937;-87
2023/09/25 13:40:17;;;;;;;;;;;;;;;18.84;100.00;102180.41;4963456;28;20043;-79
2023/09/25 13:43:04;;;;;;;;;;;;;;;18.80;100.00;102178.88;4956804;28;19937;-82
2023/09/25 13:45:50;;;;;;;;;;;;;;;18.81;100.00;102188.63;4970922;28;19968;-82
2023/09/25 13:48:36;;;;;;;;;;;;;;;18.78;100.00;102187.00;4988711;28;19926;-81
2023/09/25 13:51:21;;;;;;;;;;;;;;;18.78;100.00;102188.84;4970896;28;21005;-83
2023/09/25 13:54:07;;;;;;;;;;;;;;;18.73;100.00;102191.75;4988272;28;19975;-83
2023/09/25 13:56:53;;;;;;;;;;;;;;;18.66;100.00;102187.72;4974592;28;19941;-81
2023/09/25 13:59:43;;;;;;;;;;;;;;;18.58;100.00;102190.88;4969483;28;20877;-82
2023/09/25 14:02:29;;;;;;;;;;;;;;;18.50;100.00;102185.94;4984977;28;20050;-82
2023/09/25 14:05:14;;;;;;;;;;;;;;;18.42;100.00;102188.22;4986854;28;19941;-82
2023/09/25 14:08:02;;;;;;;;;;;;;;;18.35;100.00;102182.31;4969662;28;19952;-83
2023/09/25 14:10:51;;;;;;;;;;;;;;;18.29;100.00;102188.91;4986010;28;20037;-83
2023/09/25 14:13:37;;;;;;;;;;;;;;;18.26;100.00;102185.53;4987880;28;19940;-81